Terminal Aerodrome Forecast
Issued by NWS

Home | Current Version | Previous Version | Text Only | Print | Product List | Glossary On
Versions: 1 2 3 4 5 6 7 8 9 10 11 12 13 14
000
FTUS45 KTFX 291132
TAFHVR
TAF
KHVR 291132Z 2912/3012 VRB06KT 5SM BR SCT008
      TEMPO 2912/2914 3/4SM BR OVC003
     FM291400 08006KT P6SM SCT150
     FM300600 09010KT P6SM BKN150=

USA.gov is the U.S. government's official web portal to all federal, state and local government web resources and services.